sensor_id;sensor_type;location;lat;lon;timestamp;P1;durP1;ratioP1;P2;durP2;ratioP2
69841;SDS011;57138;51.326;-0.068;2023-12-29T00:02:01;0.10;;;0.10;;
69841;SDS011;57138;51.326;-0.068;2023-12-29T00:04:26;0.10;;;0.10;;
69841;SDS011;57138;51.326;-0.068;2023-12-29T00:06:52;0.10;;;0.10;;
69841;SDS011;57138;51.326;-0.068;2023-12-29T00:09:17;0.25;;;0.25;;
69841;SDS011;57138;51.326;-0.068;2023-12-29T00:11:49;0.20;;;0.20;;
69841;SDS011;57138;51.326;-0.068;2023-12-29T00:14:15;0.10;;;0.10;;
69841;SDS011;57138;51.326;-0.068;2023-12-29T00:16:41;0.20;;;0.20;;
69841;SDS011;57138;51.326;-0.068;2023-12-29T00:19:07;1.65;;;0.82;;
69841;SDS011;57138;51.326;-0.068;2023-12-29T00:21:32;0.20;;;0.20;;
69841;SDS011;57138;51.326;-0.068;2023-12-29T00:23:58;0.30;;;0.30;;
69841;SDS011;57138;51.326;-0.068;2023-12-29T00:26:23;0.10;;;0.10;;
69841;SDS011;57138;51.326;-0.068;2023-12-29T00:28:49;0.10;;;0.10;;
69841;SDS011;57138;51.326;-0.068;2023-12-29T00:31:14;0.10;;;0.10;;
69841;SDS011;57138;51.326;-0.068;2023-12-29T00:33:43;0.30;;;0.30;;
69841;SDS011;57138;51.326;-0.068;2023-12-29T00:36:14;0.10;;;0.10;;
69841;SDS011;57138;51.326;-0.068;2023-12-29T00:38:41;0.10;;;0.10;;
69841;SDS011;57138;51.326;-0.068;2023-12-29T00:41:07;0.10;;;0.10;;
69841;SDS011;57138;51.326;-0.068;2023-12-29T00:43:32;0.10;;;0.10;;
69841;SDS011;57138;51.326;-0.068;2023-12-29T00:45:58;11.40;;;1.65;;
69841;SDS011;57138;51.326;-0.068;2023-12-29T00:48:23;0.10;;;0.10;;
69841;SDS011;57138;51.326;-0.068;2023-12-29T00:50:48;0.10;;;0.10;;
69841;SDS011;57138;51.326;-0.068;2023-12-29T00:53:14;0.10;;;0.10;;
69841;SDS011;57138;51.326;-0.068;2023-12-29T00:55:39;0.63;;;0.63;;
69841;SDS011;57138;51.326;-0.068;2023-12-29T00:58:05;0.10;;;0.10;;
69841;SDS011;57138;51.326;-0.068;2023-12-29T01:00:30;0.10;;;0.10;;
69841;SDS011;57138;51.326;-0.068;2023-12-29T01:02:56;0.10;;;0.10;;
69841;SDS011;57138;51.326;-0.068;2023-12-29T01:05:21;0.10;;;0.10;;
69841;SDS011;57138;51.326;-0.068;2023-12-29T01:07:47;0.10;;;0.10;;
69841;SDS011;57138;51.326;-0.068;2023-12-29T01:10:12;0.10;;;0.10;;
69841;SDS011;57138;51.326;-0.068;2023-12-29T01:12:38;0.77;;;0.45;;
69841;SDS011;57138;51.326;-0.068;2023-12-29T01:15:03;0.15;;;0.15;;
69841;SDS011;57138;51.326;-0.068;2023-12-29T01:17:29;0.10;;;0.10;;
69841;SDS011;57138;51.326;-0.068;2023-12-29T01:19:54;26.30;;;5.28;;
69841;SDS011;57138;51.326;-0.068;2023-12-29T01:22:20;33.28;;;4.95;;
69841;SDS011;57138;51.326;-0.068;2023-12-29T01:24:45;28.55;;;3.97;;
69841;SDS011;57138;51.326;-0.068;2023-12-29T01:27:11;30.95;;;5.03;;
69841;SDS011;57138;51.326;-0.068;2023-12-29T01:29:36;38.95;;;6.05;;
69841;SDS011;57138;51.326;-0.068;2023-12-29T01:32:02;30.42;;;3.80;;
69841;SDS011;57138;51.326;-0.068;2023-12-29T01:34:28;33.78;;;4.22;;
69841;SDS011;57138;51.326;-0.068;2023-12-29T01:36:58;23.80;;;3.88;;
69841;SDS011;57138;51.326;-0.068;2023-12-29T01:39:23;37.75;;;4.93;;
69841;SDS011;57138;51.326;-0.068;2023-12-29T01:41:49;25.45;;;3.33;;
69841;SDS011;57138;51.326;-0.068;2023-12-29T01:44:18;24.35;;;4.60;;
69841;SDS011;57138;51.326;-0.068;2023-12-29T01:46:49;24.15;;;3.92;;
69841;SDS011;57138;51.326;-0.068;2023-12-29T01:49:17;33.50;;;5.43;;
69841;SDS011;57138;51.326;-0.068;2023-12-29T01:51:44;27.85;;;3.83;;
69841;SDS011;57138;51.326;-0.068;2023-12-29T01:54:12;30.13;;;5.57;;
69841;SDS011;57138;51.326;-0.068;2023-12-29T01:56:38;29.05;;;4.22;;
69841;SDS011;57138;51.326;-0.068;2023-12-29T01:59:04;27.88;;;3.95;;
69841;SDS011;57138;51.326;-0.068;2023-12-29T02:01:30;43.72;;;5.88;;
69841;SDS011;57138;51.326;-0.068;2023-12-29T02:03:57;26.38;;;4.93;;
69841;SDS011;57138;51.326;-0.068;2023-12-29T02:06:22;35.47;;;5.15;;
69841;SDS011;57138;51.326;-0.068;2023-12-29T02:08:49;42.58;;;5.90;;
69841;SDS011;57138;51.326;-0.068;2023-12-29T02:11:16;30.08;;;5.70;;
69841;SDS011;57138;51.326;-0.068;2023-12-29T02:13:42;26.63;;;3.45;;
69841;SDS011;57138;51.326;-0.068;2023-12-29T02:16:30;25.95;;;4.28;;
69841;SDS011;57138;51.326;-0.068;2023-12-29T02:18:58;34.25;;;4.43;;
69841;SDS011;57138;51.326;-0.068;2023-12-29T02:21:26;36.13;;;5.05;;
69841;SDS011;57138;51.326;-0.068;2023-12-29T02:23:51;29.38;;;4.15;;
69841;SDS011;57138;51.326;-0.068;2023-12-29T02:26:17;34.97;;;5.05;;
69841;SDS011;57138;51.326;-0.068;2023-12-29T02:28:49;33.90;;;5.95;;
69841;SDS011;57138;51.326;-0.068;2023-12-29T02:31:25;33.38;;;8.05;;
69841;SDS011;57138;51.326;-0.068;2023-12-29T02:33:55;28.63;;;4.75;;
69841;SDS011;57138;51.326;-0.068;2023-12-29T02:36:22;36.03;;;4.45;;
69841;SDS011;57138;51.326;-0.068;2023-12-29T02:38:49;35.38;;;5.22;;
69841;SDS011;57138;51.326;-0.068;2023-12-29T02:41:15;37.00;;;4.72;;
69841;SDS011;57138;51.326;-0.068;2023-12-29T02:43:40;27.88;;;5.70;;
69841;SDS011;57138;51.326;-0.068;2023-12-29T02:46:06;39.70;;;7.50;;
69841;SDS011;57138;51.326;-0.068;2023-12-29T02:48:31;39.28;;;4.88;;
69841;SDS011;57138;51.326;-0.068;2023-12-29T02:50:56;35.15;;;5.57;;
69841;SDS011;57138;51.326;-0.068;2023-12-29T02:53:22;36.10;;;4.82;;
69841;SDS011;57138;51.326;-0.068;2023-12-29T02:55:47;29.17;;;4.70;;
69841;SDS011;57138;51.326;-0.068;2023-12-29T02:58:13;39.10;;;7.43;;
69841;SDS011;57138;51.326;-0.068;2023-12-29T03:00:38;35.58;;;4.90;;
69841;SDS011;57138;51.326;-0.068;2023-12-29T03:03:04;27.25;;;5.45;;
69841;SDS011;57138;51.326;-0.068;2023-12-29T03:05:30;36.33;;;6.07;;
69841;SDS011;57138;51.326;-0.068;2023-12-29T03:07:56;32.45;;;5.68;;
69841;SDS011;57138;51.326;-0.068;2023-12-29T03:10:22;30.35;;;4.53;;
69841;SDS011;57138;51.326;-0.068;2023-12-29T03:12:48;45.17;;;6.25;;
69841;SDS011;57138;51.326;-0.068;2023-12-29T03:15:13;36.72;;;4.10;;
69841;SDS011;57138;51.326;-0.068;2023-12-29T03:17:39;46.00;;;7.40;;
69841;SDS011;57138;51.326;-0.068;2023-12-29T03:20:04;34.05;;;5.50;;
69841;SDS011;57138;51.326;-0.068;2023-12-29T03:22:30;44.15;;;6.25;;
69841;SDS011;57138;51.326;-0.068;2023-12-29T03:24:56;52.35;;;5.22;;
69841;SDS011;57138;51.326;-0.068;2023-12-29T03:27:21;36.60;;;4.93;;
69841;SDS011;57138;51.326;-0.068;2023-12-29T03:29:46;33.70;;;3.60;;
69841;SDS011;57138;51.326;-0.068;2023-12-29T03:32:12;33.05;;;4.55;;
69841;SDS011;57138;51.326;-0.068;2023-12-29T03:34:37;35.10;;;4.75;;
69841;SDS011;57138;51.326;-0.068;2023-12-29T03:37:03;36.00;;;5.35;;
69841;SDS011;57138;51.326;-0.068;2023-12-29T03:39:28;35.22;;;7.32;;
69841;SDS011;57138;51.326;-0.068;2023-12-29T03:41:55;29.13;;;5.05;;
69841;SDS011;57138;51.326;-0.068;2023-12-29T03:44:20;32.15;;;3.45;;
69841;SDS011;57138;51.326;-0.068;2023-12-29T03:46:45;33.80;;;4.43;;
69841;SDS011;57138;51.326;-0.068;2023-12-29T03:49:11;22.27;;;3.65;;
69841;SDS011;57138;51.326;-0.068;2023-12-29T03:51:37;26.98;;;3.92;;
69841;SDS011;57138;51.326;-0.068;2023-12-29T03:54:02;39.53;;;4.60;;
69841;SDS011;57138;51.326;-0.068;2023-12-29T03:56:28;25.60;;;4.15;;
69841;SDS011;57138;51.326;-0.068;2023-12-29T03:58:54;34.05;;;4.25;;
69841;SDS011;57138;51.326;-0.068;2023-12-29T04:01:19;22.80;;;4.30;;
69841;SDS011;57138;51.326;-0.068;2023-12-29T04:03:45;37.45;;;4.55;;
69841;SDS011;57138;51.326;-0.068;2023-12-29T04:06:10;32.20;;;4.65;;
69841;SDS011;57138;51.326;-0.068;2023-12-29T04:08:36;37.50;;;5.45;;
69841;SDS011;57138;51.326;-0.068;2023-12-29T04:11:03;33.22;;;4.35;;
69841;SDS011;57138;51.326;-0.068;2023-12-29T04:13:29;24.33;;;3.88;;
69841;SDS011;57138;51.326;-0.068;2023-12-29T04:15:55;25.40;;;3.50;;
69841;SDS011;57138;51.326;-0.068;2023-12-29T04:18:21;29.10;;;3.85;;
69841;SDS011;57138;51.326;-0.068;2023-12-29T04:20:48;29.98;;;4.60;;
69841;SDS011;57138;51.326;-0.068;2023-12-29T04:23:13;25.23;;;3.20;;
69841;SDS011;57138;51.326;-0.068;2023-12-29T04:25:39;32.05;;;2.85;;
69841;SDS011;57138;51.326;-0.068;2023-12-29T04:28:04;30.30;;;3.50;;
69841;SDS011;57138;51.326;-0.068;2023-12-29T04:30:30;31.55;;;4.57;;
69841;SDS011;57138;51.326;-0.068;2023-12-29T04:32:55;29.30;;;3.55;;
69841;SDS011;57138;51.326;-0.068;2023-12-29T04:35:21;27.23;;;3.13;;
69841;SDS011;57138;51.326;-0.068;2023-12-29T04:37:46;20.02;;;3.72;;
69841;SDS011;57138;51.326;-0.068;2023-12-29T04:40:12;35.88;;;5.40;;
69841;SDS011;57138;51.326;-0.068;2023-12-29T04:42:38;24.95;;;4.13;;
69841;SDS011;57138;51.326;-0.068;2023-12-29T04:45:04;23.42;;;3.95;;
69841;SDS011;57138;51.326;-0.068;2023-12-29T04:47:30;25.67;;;5.30;;
69841;SDS011;57138;51.326;-0.068;2023-12-29T04:49:55;25.63;;;3.20;;
69841;SDS011;57138;51.326;-0.068;2023-12-29T04:52:21;24.40;;;3.72;;
69841;SDS011;57138;51.326;-0.068;2023-12-29T04:54:46;27.10;;;4.35;;
69841;SDS011;57138;51.326;-0.068;2023-12-29T04:57:12;36.45;;;3.97;;
69841;SDS011;57138;51.326;-0.068;2023-12-29T04:59:37;42.55;;;4.45;;
69841;SDS011;57138;51.326;-0.068;2023-12-29T05:02:03;25.15;;;4.93;;
69841;SDS011;57138;51.326;-0.068;2023-12-29T05:04:28;27.60;;;3.80;;
69841;SDS011;57138;51.326;-0.068;2023-12-29T05:06:54;34.28;;;4.57;;
69841;SDS011;57138;51.326;-0.068;2023-12-29T05:09:19;28.25;;;3.40;;
69841;SDS011;57138;51.326;-0.068;2023-12-29T05:11:45;29.30;;;4.18;;
69841;SDS011;57138;51.326;-0.068;2023-12-29T05:14:10;27.20;;;4.95;;
69841;SDS011;57138;51.326;-0.068;2023-12-29T05:16:36;30.55;;;4.03;;
69841;SDS011;57138;51.326;-0.068;2023-12-29T05:19:01;27.17;;;3.25;;
69841;SDS011;57138;51.326;-0.068;2023-12-29T05:21:27;28.25;;;3.92;;
69841;SDS011;57138;51.326;-0.068;2023-12-29T05:23:52;29.38;;;3.55;;
69841;SDS011;57138;51.326;-0.068;2023-12-29T05:26:18;33.50;;;4.05;;
69841;SDS011;57138;51.326;-0.068;2023-12-29T05:28:43;31.13;;;4.90;;
69841;SDS011;57138;51.326;-0.068;2023-12-29T05:31:09;26.38;;;3.40;;
69841;SDS011;57138;51.326;-0.068;2023-12-29T05:33:34;25.85;;;3.47;;
69841;SDS011;57138;51.326;-0.068;2023-12-29T05:36:05;35.45;;;3.67;;
69841;SDS011;57138;51.326;-0.068;2023-12-29T05:38:32;28.40;;;4.00;;
69841;SDS011;57138;51.326;-0.068;2023-12-29T05:40:58;24.67;;;4.30;;
69841;SDS011;57138;51.326;-0.068;2023-12-29T05:43:23;21.70;;;3.15;;
69841;SDS011;57138;51.326;-0.068;2023-12-29T05:45:49;28.63;;;5.05;;
69841;SDS011;57138;51.326;-0.068;2023-12-29T05:48:14;22.80;;;3.80;;
69841;SDS011;57138;51.326;-0.068;2023-12-29T05:50:40;21.33;;;3.35;;
69841;SDS011;57138;51.326;-0.068;2023-12-29T05:53:05;24.70;;;3.58;;
69841;SDS011;57138;51.326;-0.068;2023-12-29T05:55:31;21.75;;;3.78;;
69841;SDS011;57138;51.326;-0.068;2023-12-29T05:57:56;16.65;;;3.53;;
69841;SDS011;57138;51.326;-0.068;2023-12-29T06:00:22;22.88;;;3.90;;
69841;SDS011;57138;51.326;-0.068;2023-12-29T06:02:47;11.57;;;1.88;;
69841;SDS011;57138;51.326;-0.068;2023-12-29T06:05:13;16.08;;;3.13;;
69841;SDS011;57138;51.326;-0.068;2023-12-29T06:07:38;18.55;;;2.80;;
69841;SDS011;57138;51.326;-0.068;2023-12-29T06:10:04;15.95;;;2.40;;
69841;SDS011;57138;51.326;-0.068;2023-12-29T06:12:30;14.05;;;2.15;;
69841;SDS011;57138;51.326;-0.068;2023-12-29T06:14:55;15.15;;;2.45;;
69841;SDS011;57138;51.326;-0.068;2023-12-29T06:17:21;17.77;;;2.67;;
69841;SDS011;57138;51.326;-0.068;2023-12-29T06:19:46;14.88;;;2.10;;
69841;SDS011;57138;51.326;-0.068;2023-12-29T06:22:12;21.40;;;2.85;;
69841;SDS011;57138;51.326;-0.068;2023-12-29T06:24:39;19.50;;;3.20;;
69841;SDS011;57138;51.326;-0.068;2023-12-29T06:27:07;13.88;;;2.35;;
69841;SDS011;57138;51.326;-0.068;2023-12-29T06:29:34;14.57;;;3.28;;
69841;SDS011;57138;51.326;-0.068;2023-12-29T06:31:59;18.90;;;3.33;;
69841;SDS011;57138;51.326;-0.068;2023-12-29T06:34:25;14.20;;;1.80;;
69841;SDS011;57138;51.326;-0.068;2023-12-29T06:36:50;14.35;;;1.88;;
69841;SDS011;57138;51.326;-0.068;2023-12-29T06:39:16;14.65;;;1.70;;
69841;SDS011;57138;51.326;-0.068;2023-12-29T06:41:41;11.98;;;2.00;;
69841;SDS011;57138;51.326;-0.068;2023-12-29T06:44:07;23.17;;;3.55;;
69841;SDS011;57138;51.326;-0.068;2023-12-29T06:46:32;21.25;;;2.30;;
69841;SDS011;57138;51.326;-0.068;2023-12-29T06:48:58;16.98;;;1.98;;
69841;SDS011;57138;51.326;-0.068;2023-12-29T06:51:23;16.88;;;2.85;;
69841;SDS011;57138;51.326;-0.068;2023-12-29T06:53:49;18.70;;;2.10;;
69841;SDS011;57138;51.326;-0.068;2023-12-29T06:56:15;14.15;;;2.83;;
69841;SDS011;57138;51.326;-0.068;2023-12-29T06:58:41;10.07;;;3.45;;
69841;SDS011;57138;51.326;-0.068;2023-12-29T07:01:06;19.00;;;2.10;;
69841;SDS011;57138;51.326;-0.068;2023-12-29T07:03:32;15.85;;;2.67;;
69841;SDS011;57138;51.326;-0.068;2023-12-29T07:06:00;21.45;;;1.88;;
69841;SDS011;57138;51.326;-0.068;2023-12-29T07:08:26;13.52;;;4.20;;
69841;SDS011;57138;51.326;-0.068;2023-12-29T07:10:52;14.70;;;2.38;;
69841;SDS011;57138;51.326;-0.068;2023-12-29T07:13:17;15.40;;;2.15;;
69841;SDS011;57138;51.326;-0.068;2023-12-29T07:15:42;18.42;;;2.53;;
69841;SDS011;57138;51.326;-0.068;2023-12-29T07:18:08;10.20;;;2.05;;
69841;SDS011;57138;51.326;-0.068;2023-12-29T07:20:33;14.52;;;1.48;;
69841;SDS011;57138;51.326;-0.068;2023-12-29T07:22:59;22.02;;;2.50;;
69841;SDS011;57138;51.326;-0.068;2023-12-29T07:25:26;7.90;;;1.60;;
69841;SDS011;57138;51.326;-0.068;2023-12-29T07:27:51;18.63;;;2.58;;
69841;SDS011;57138;51.326;-0.068;2023-12-29T07:30:17;7.30;;;1.15;;
69841;SDS011;57138;51.326;-0.068;2023-12-29T07:32:44;16.10;;;1.75;;
69841;SDS011;57138;51.326;-0.068;2023-12-29T07:35:10;14.00;;;2.13;;
69841;SDS011;57138;51.326;-0.068;2023-12-29T07:37:35;10.88;;;1.65;;
69841;SDS011;57138;51.326;-0.068;2023-12-29T07:40:01;18.30;;;2.63;;
69841;SDS011;57138;51.326;-0.068;2023-12-29T07:42:26;16.60;;;2.25;;
69841;SDS011;57138;51.326;-0.068;2023-12-29T07:44:52;12.07;;;1.70;;
69841;SDS011;57138;51.326;-0.068;2023-12-29T07:47:20;9.60;;;1.33;;
69841;SDS011;57138;51.326;-0.068;2023-12-29T07:49:45;15.75;;;1.63;;
69841;SDS011;57138;51.326;-0.068;2023-12-29T07:52:11;6.32;;;1.23;;
69841;SDS011;57138;51.326;-0.068;2023-12-29T07:54:36;6.82;;;0.93;;
69841;SDS011;57138;51.326;-0.068;2023-12-29T07:57:02;15.85;;;1.52;;
69841;SDS011;57138;51.326;-0.068;2023-12-29T07:59:27;12.13;;;1.40;;
69841;SDS011;57138;51.326;-0.068;2023-12-29T08:01:53;13.95;;;2.08;;
69841;SDS011;57138;51.326;-0.068;2023-12-29T08:04:18;9.77;;;1.10;;
69841;SDS011;57138;51.326;-0.068;2023-12-29T08:06:44;10.60;;;1.33;;
69841;SDS011;57138;51.326;-0.068;2023-12-29T08:09:10;9.70;;;1.83;;
69841;SDS011;57138;51.326;-0.068;2023-12-29T08:11:35;8.80;;;1.58;;
69841;SDS011;57138;51.326;-0.068;2023-12-29T08:14:01;10.75;;;1.02;;
69841;SDS011;57138;51.326;-0.068;2023-12-29T08:16:27;8.65;;;2.45;;
69841;SDS011;57138;51.326;-0.068;2023-12-29T08:18:52;12.25;;;2.05;;
69841;SDS011;57138;51.326;-0.068;2023-12-29T08:21:18;11.52;;;1.65;;
69841;SDS011;57138;51.326;-0.068;2023-12-29T08:23:46;6.53;;;1.27;;
69841;SDS011;57138;51.326;-0.068;2023-12-29T08:26:12;12.55;;;1.40;;
69841;SDS011;57138;51.326;-0.068;2023-12-29T08:28:38;24.88;;;3.53;;
69841;SDS011;57138;51.326;-0.068;2023-12-29T08:31:03;11.13;;;2.95;;
69841;SDS011;57138;51.326;-0.068;2023-12-29T08:33:29;11.93;;;1.30;;
69841;SDS011;57138;51.326;-0.068;2023-12-29T08:35:54;8.45;;;1.52;;
69841;SDS011;57138;51.326;-0.068;2023-12-29T08:38:25;7.38;;;1.20;;
69841;SDS011;57138;51.326;-0.068;2023-12-29T08:40:51;12.52;;;2.90;;
69841;SDS011;57138;51.326;-0.068;2023-12-29T08:43:17;12.77;;;1.13;;
69841;SDS011;57138;51.326;-0.068;2023-12-29T08:45:49;9.13;;;1.05;;
69841;SDS011;57138;51.326;-0.068;2023-12-29T08:48:15;10.88;;;1.98;;
69841;SDS011;57138;51.326;-0.068;2023-12-29T08:50:41;15.18;;;1.73;;
69841;SDS011;57138;51.326;-0.068;2023-12-29T08:53:08;11.73;;;1.30;;
69841;SDS011;57138;51.326;-0.068;2023-12-29T08:55:33;14.38;;;1.60;;
69841;SDS011;57138;51.326;-0.068;2023-12-29T08:57:59;17.02;;;1.58;;
69841;SDS011;57138;51.326;-0.068;2023-12-29T09:00:24;12.15;;;1.73;;
69841;SDS011;57138;51.326;-0.068;2023-12-29T09:02:50;14.25;;;2.40;;
69841;SDS011;57138;51.326;-0.068;2023-12-29T09:05:15;12.25;;;2.78;;
69841;SDS011;57138;51.326;-0.068;2023-12-29T09:07:41;9.98;;;1.50;;
69841;SDS011;57138;51.326;-0.068;2023-12-29T09:10:07;15.93;;;5.28;;
69841;SDS011;57138;51.326;-0.068;2023-12-29T09:12:35;17.80;;;2.65;;
69841;SDS011;57138;51.326;-0.068;2023-12-29T09:15:01;12.30;;;1.42;;
69841;SDS011;57138;51.326;-0.068;2023-12-29T09:17:27;15.40;;;1.20;;
69841;SDS011;57138;51.326;-0.068;2023-12-29T09:19:53;8.63;;;1.33;;
69841;SDS011;57138;51.326;-0.068;2023-12-29T09:22:19;9.98;;;1.40;;
69841;SDS011;57138;51.326;-0.068;2023-12-29T09:24:45;20.77;;;3.13;;
69841;SDS011;57138;51.326;-0.068;2023-12-29T09:27:10;10.88;;;1.70;;
69841;SDS011;57138;51.326;-0.068;2023-12-29T09:29:36;13.50;;;1.42;;
69841;SDS011;57138;51.326;-0.068;2023-12-29T09:32:02;15.80;;;1.67;;
69841;SDS011;57138;51.326;-0.068;2023-12-29T09:34:27;17.75;;;3.25;;
69841;SDS011;57138;51.326;-0.068;2023-12-29T09:36:53;11.35;;;1.90;;
69841;SDS011;57138;51.326;-0.068;2023-12-29T09:39:19;13.52;;;1.70;;
69841;SDS011;57138;51.326;-0.068;2023-12-29T09:41:45;14.85;;;2.45;;
69841;SDS011;57138;51.326;-0.068;2023-12-29T09:44:15;13.93;;;2.72;;
69841;SDS011;57138;51.326;-0.068;2023-12-29T09:46:44;12.57;;;1.67;;
69841;SDS011;57138;51.326;-0.068;2023-12-29T09:49:15;14.43;;;3.45;;
69841;SDS011;57138;51.326;-0.068;2023-12-29T09:51:43;27.20;;;3.63;;
69841;SDS011;57138;51.326;-0.068;2023-12-29T09:54:10;16.08;;;1.80;;
69841;SDS011;57138;51.326;-0.068;2023-12-29T09:56:37;26.13;;;3.88;;
69841;SDS011;57138;51.326;-0.068;2023-12-29T09:59:03;17.08;;;2.08;;
69841;SDS011;57138;51.326;-0.068;2023-12-29T10:01:29;21.23;;;2.90;;
69841;SDS011;57138;51.326;-0.068;2023-12-29T10:03:59;20.73;;;2.25;;
69841;SDS011;57138;51.326;-0.068;2023-12-29T10:06:25;16.73;;;2.55;;
69841;SDS011;57138;51.326;-0.068;2023-12-29T10:08:51;17.17;;;2.30;;
69841;SDS011;57138;51.326;-0.068;2023-12-29T10:11:21;31.27;;;3.85;;
69841;SDS011;57138;51.326;-0.068;2023-12-29T10:13:52;21.35;;;4.13;;
69841;SDS011;57138;51.326;-0.068;2023-12-29T10:16:32;22.45;;;3.90;;
69841;SDS011;57138;51.326;-0.068;2023-12-29T10:19:10;15.45;;;2.08;;
69841;SDS011;57138;51.326;-0.068;2023-12-29T10:21:57;20.45;;;3.13;;
69841;SDS011;57138;51.326;-0.068;2023-12-29T10:24:33;19.02;;;3.10;;
69841;SDS011;57138;51.326;-0.068;2023-12-29T10:26:59;18.65;;;2.60;;
69841;SDS011;57138;51.326;-0.068;2023-12-29T10:29:27;23.02;;;2.78;;
69841;SDS011;57138;51.326;-0.068;2023-12-29T10:31:52;15.32;;;2.03;;
69841;SDS011;57138;51.326;-0.068;2023-12-29T10:34:19;20.40;;;2.40;;
69841;SDS011;57138;51.326;-0.068;2023-12-29T10:36:53;20.30;;;3.10;;
69841;SDS011;57138;51.326;-0.068;2023-12-29T10:39:19;21.88;;;2.38;;
69841;SDS011;57138;51.326;-0.068;2023-12-29T10:41:45;29.40;;;3.80;;
69841;SDS011;57138;51.326;-0.068;2023-12-29T10:44:10;21.23;;;3.35;;
69841;SDS011;57138;51.326;-0.068;2023-12-29T10:46:36;18.45;;;2.45;;
69841;SDS011;57138;51.326;-0.068;2023-12-29T10:49:09;28.85;;;2.50;;
69841;SDS011;57138;51.326;-0.068;2023-12-29T10:51:35;23.08;;;3.13;;
69841;SDS011;57138;51.326;-0.068;2023-12-29T10:54:02;19.52;;;3.03;;
69841;SDS011;57138;51.326;-0.068;2023-12-29T10:56:29;19.38;;;3.08;;
69841;SDS011;57138;51.326;-0.068;2023-12-29T10:59:02;22.77;;;2.63;;
69841;SDS011;57138;51.326;-0.068;2023-12-29T11:01:33;27.17;;;3.47;;
69841;SDS011;57138;51.326;-0.068;2023-12-29T11:04:04;28.05;;;3.60;;
69841;SDS011;57138;51.326;-0.068;2023-12-29T11:06:40;23.20;;;3.90;;
69841;SDS011;57138;51.326;-0.068;2023-12-29T11:09:10;17.52;;;3.40;;
69841;SDS011;57138;51.326;-0.068;2023-12-29T11:11:36;18.38;;;2.42;;
69841;SDS011;57138;51.326;-0.068;2023-12-29T11:14:02;21.30;;;2.40;;
69841;SDS011;57138;51.326;-0.068;2023-12-29T11:16:29;19.15;;;3.20;;
69841;SDS011;57138;51.326;-0.068;2023-12-29T11:18:56;23.95;;;4.00;;
69841;SDS011;57138;51.326;-0.068;2023-12-29T11:21:21;27.27;;;3.50;;
69841;SDS011;57138;51.326;-0.068;2023-12-29T11:23:48;19.65;;;4.15;;
69841;SDS011;57138;51.326;-0.068;2023-12-29T11:26:14;14.57;;;2.17;;
69841;SDS011;57138;51.326;-0.068;2023-12-29T11:28:40;20.75;;;2.92;;
69841;SDS011;57138;51.326;-0.068;2023-12-29T11:31:06;20.08;;;2.60;;
69841;SDS011;57138;51.326;-0.068;2023-12-29T11:33:40;24.67;;;3.60;;
69841;SDS011;57138;51.326;-0.068;2023-12-29T11:36:12;18.77;;;3.65;;
69841;SDS011;57138;51.326;-0.068;2023-12-29T11:42:07;15.15;;;2.28;;
69841;SDS011;57138;51.326;-0.068;2023-12-29T11:44:42;16.50;;;4.05;;
69841;SDS011;57138;51.326;-0.068;2023-12-29T11:47:56;21.20;;;4.70;;
69841;SDS011;57138;51.326;-0.068;2023-12-29T11:50:00;18.65;;;3.42;;
69841;SDS011;57138;51.326;-0.068;2023-12-29T11:52:33;18.67;;;3.30;;
69841;SDS011;57138;51.326;-0.068;2023-12-29T11:55:08;20.33;;;2.78;;
69841;SDS011;57138;51.326;-0.068;2023-12-29T11:57:34;19.13;;;3.60;;
69841;SDS011;57138;51.326;-0.068;2023-12-29T12:00:01;17.83;;;2.65;;
69841;SDS011;57138;51.326;-0.068;2023-12-29T12:02:30;12.23;;;1.92;;
69841;SDS011;57138;51.326;-0.068;2023-12-29T12:04:56;12.68;;;1.90;;
69841;SDS011;57138;51.326;-0.068;2023-12-29T12:09:47;18.27;;;2.97;;
69841;SDS011;57138;51.326;-0.068;2023-12-29T12:17:56;16.23;;;2.03;;
69841;SDS011;57138;51.326;-0.068;2023-12-29T12:20:30;13.13;;;2.58;;
69841;SDS011;57138;51.326;-0.068;2023-12-29T12:22:57;8.10;;;1.70;;
69841;SDS011;57138;51.326;-0.068;2023-12-29T12:25:27;16.50;;;3.70;;
69841;SDS011;57138;51.326;-0.068;2023-12-29T12:27:53;10.88;;;3.00;;
69841;SDS011;57138;51.326;-0.068;2023-12-29T12:30:19;10.95;;;1.20;;
69841;SDS011;57138;51.326;-0.068;2023-12-29T12:32:45;8.40;;;1.15;;
69841;SDS011;57138;51.326;-0.068;2023-12-29T12:35:14;16.33;;;1.30;;
69841;SDS011;57138;51.326;-0.068;2023-12-29T12:37:41;10.73;;;1.58;;
69841;SDS011;57138;51.326;-0.068;2023-12-29T12:40:07;4.65;;;1.00;;
69841;SDS011;57138;51.326;-0.068;2023-12-29T12:42:34;4.68;;;0.90;;
69841;SDS011;57138;51.326;-0.068;2023-12-29T12:45:11;6.00;;;1.10;;
69841;SDS011;57138;51.326;-0.068;2023-12-29T12:47:44;10.25;;;2.25;;
69841;SDS011;57138;51.326;-0.068;2023-12-29T12:50:15;5.25;;;0.75;;
69841;SDS011;57138;51.326;-0.068;2023-12-29T12:52:41;8.57;;;0.80;;
69841;SDS011;57138;51.326;-0.068;2023-12-29T12:55:07;5.00;;;0.88;;
69841;SDS011;57138;51.326;-0.068;2023-12-29T12:57:34;3.75;;;0.75;;
69841;SDS011;57138;51.326;-0.068;2023-12-29T13:00:01;8.57;;;0.90;;
69841;SDS011;57138;51.326;-0.068;2023-12-29T13:02:28;6.07;;;1.58;;
69841;SDS011;57138;51.326;-0.068;2023-12-29T13:04:54;7.40;;;0.90;;
69841;SDS011;57138;51.326;-0.068;2023-12-29T13:07:21;7.63;;;1.25;;
69841;SDS011;57138;51.326;-0.068;2023-12-29T13:09:50;5.80;;;1.05;;
69841;SDS011;57138;51.326;-0.068;2023-12-29T13:12:17;5.72;;;0.88;;
69841;SDS011;57138;51.326;-0.068;2023-12-29T13:14:43;4.15;;;0.60;;
69841;SDS011;57138;51.326;-0.068;2023-12-29T13:17:12;6.20;;;0.70;;
69841;SDS011;57138;51.326;-0.068;2023-12-29T13:19:39;8.93;;;2.25;;
69841;SDS011;57138;51.326;-0.068;2023-12-29T13:22:06;5.40;;;1.10;;
69841;SDS011;57138;51.326;-0.068;2023-12-29T13:24:34;8.38;;;1.55;;
69841;SDS011;57138;51.326;-0.068;2023-12-29T13:27:05;4.13;;;0.63;;
69841;SDS011;57138;51.326;-0.068;2023-12-29T13:29:32;6.20;;;1.10;;
69841;SDS011;57138;51.326;-0.068;2023-12-29T13:32:07;3.30;;;0.60;;
69841;SDS011;57138;51.326;-0.068;2023-12-29T13:40:16;5.93;;;1.00;;
69841;SDS011;57138;51.326;-0.068;2023-12-29T13:42:48;6.55;;;0.90;;
69841;SDS011;57138;51.326;-0.068;2023-12-29T13:45:17;5.50;;;0.68;;
69841;SDS011;57138;51.326;-0.068;2023-12-29T13:47:45;6.57;;;0.80;;
69841;SDS011;57138;51.326;-0.068;2023-12-29T13:50:11;5.05;;;0.88;;
69841;SDS011;57138;51.326;-0.068;2023-12-29T13:52:37;7.70;;;2.33;;
69841;SDS011;57138;51.326;-0.068;2023-12-29T13:55:04;4.60;;;0.85;;
69841;SDS011;57138;51.326;-0.068;2023-12-29T13:57:31;4.63;;;0.98;;
69841;SDS011;57138;51.326;-0.068;2023-12-29T13:59:57;1.75;;;0.40;;
69841;SDS011;57138;51.326;-0.068;2023-12-29T14:02:36;4.78;;;0.80;;
69841;SDS011;57138;51.326;-0.068;2023-12-29T14:07:48;10.77;;;1.55;;
69841;SDS011;57138;51.326;-0.068;2023-12-29T14:10:19;11.52;;;1.10;;
69841;SDS011;57138;51.326;-0.068;2023-12-29T14:12:45;4.13;;;0.65;;
69841;SDS011;57138;51.326;-0.068;2023-12-29T14:15:11;8.80;;;0.90;;
69841;SDS011;57138;51.326;-0.068;2023-12-29T14:17:37;8.45;;;0.82;;
69841;SDS011;57138;51.326;-0.068;2023-12-29T14:20:07;8.88;;;1.05;;
69841;SDS011;57138;51.326;-0.068;2023-12-29T14:22:34;6.97;;;1.17;;
69841;SDS011;57138;51.326;-0.068;2023-12-29T14:25:03;4.28;;;0.80;;
69841;SDS011;57138;51.326;-0.068;2023-12-29T14:27:30;5.95;;;1.00;;
69841;SDS011;57138;51.326;-0.068;2023-12-29T14:29:56;7.07;;;0.90;;
69841;SDS011;57138;51.326;-0.068;2023-12-29T14:32:22;6.97;;;1.20;;
69841;SDS011;57138;51.326;-0.068;2023-12-29T14:34:49;6.50;;;1.10;;
69841;SDS011;57138;51.326;-0.068;2023-12-29T14:37:21;3.67;;;0.73;;
69841;SDS011;57138;51.326;-0.068;2023-12-29T14:39:47;3.83;;;0.88;;
69841;SDS011;57138;51.326;-0.068;2023-12-29T14:42:14;5.43;;;1.00;;
69841;SDS011;57138;51.326;-0.068;2023-12-29T14:44:39;2.72;;;0.75;;